sensor_id;sensor_type;location;lat;lon;timestamp;temperature;humidity
9949;DHT22;5013;51.840;8.276;2023-06-22T00:02:18;20.90;1.00
9949;DHT22;5013;51.840;8.276;2023-06-22T00:04:44;20.90;1.00
9949;DHT22;5013;51.840;8.276;2023-06-22T00:07:10;20.90;1.00
9949;DHT22;5013;51.840;8.276;2023-06-22T00:09:36;20.90;1.00
9949;DHT22;5013;51.840;8.276;2023-06-22T00:12:02;20.80;99.90
9949;DHT22;5013;51.840;8.276;2023-06-22T00:14:28;20.70;1.00
9949;DHT22;5013;51.840;8.276;2023-06-22T00:16:53;20.80;1.00
9949;DHT22;5013;51.840;8.276;2023-06-22T00:19:21;20.80;1.00
9949;DHT22;5013;51.840;8.276;2023-06-22T00:21:47;20.70;1.00
9949;DHT22;5013;51.840;8.276;2023-06-22T00:24:18;20.60;1.00
9949;DHT22;5013;51.840;8.276;2023-06-22T00:26:44;20.60;1.00
9949;DHT22;5013;51.840;8.276;2023-06-22T00:29:10;20.60;1.00
9949;DHT22;5013;51.840;8.276;2023-06-22T00:31:36;20.60;99.90
9949;DHT22;5013;51.840;8.276;2023-06-22T00:34:01;20.70;21.70
9949;DHT22;5013;51.840;8.276;2023-06-22T00:36:27;20.70;87.70
9949;DHT22;5013;51.840;8.276;2023-06-22T00:38:53;20.80;99.90
9949;DHT22;5013;51.840;8.276;2023-06-22T00:41:18;20.70;99.90
9949;DHT22;5013;51.840;8.276;2023-06-22T00:43:45;20.70;1.00
9949;DHT22;5013;51.840;8.276;2023-06-22T00:46:10;20.80;99.90
9949;DHT22;5013;51.840;8.276;2023-06-22T00:48:36;20.80;1.00
9949;DHT22;5013;51.840;8.276;2023-06-22T00:51:02;20.80;99.90
9949;DHT22;5013;51.840;8.276;2023-06-22T00:53:28;20.80;99.90
9949;DHT22;5013;51.840;8.276;2023-06-22T00:55:54;20.80;99.90
9949;DHT22;5013;51.840;8.276;2023-06-22T00:58:21;20.80;99.90
9949;DHT22;5013;51.840;8.276;2023-06-22T01:00:51;20.70;99.90
9949;DHT22;5013;51.840;8.276;2023-06-22T01:03:17;20.80;99.90
9949;DHT22;5013;51.840;8.276;2023-06-22T01:05:42;20.80;99.90
9949;DHT22;5013;51.840;8.276;2023-06-22T01:08:31;20.90;99.90
9949;DHT22;5013;51.840;8.276;2023-06-22T01:11:14;20.90;99.90
9949;DHT22;5013;51.840;8.276;2023-06-22T01:13:48;20.90;1.00
9949;DHT22;5013;51.840;8.276;2023-06-22T01:16:35;20.80;99.90
9949;DHT22;5013;51.840;8.276;2023-06-22T01:19:16;20.80;99.90
9949;DHT22;5013;51.840;8.276;2023-06-22T01:21:44;20.70;99.90
9949;DHT22;5013;51.840;8.276;2023-06-22T01:24:18;20.50;99.90
9949;DHT22;5013;51.840;8.276;2023-06-22T01:29:27;20.30;1.00
9949;DHT22;5013;51.840;8.276;2023-06-22T01:31:56;20.30;1.00
9949;DHT22;5013;51.840;8.276;2023-06-22T01:34:23;20.40;1.00
9949;DHT22;5013;51.840;8.276;2023-06-22T01:36:50;20.50;1.00
9949;DHT22;5013;51.840;8.276;2023-06-22T01:39:17;20.50;1.00
9949;DHT22;5013;51.840;8.276;2023-06-22T01:41:44;20.50;1.00
9949;DHT22;5013;51.840;8.276;2023-06-22T01:44:10;20.50;1.00
9949;DHT22;5013;51.840;8.276;2023-06-22T01:46:37;20.40;1.00
9949;DHT22;5013;51.840;8.276;2023-06-22T01:49:04;20.40;1.00
9949;DHT22;5013;51.840;8.276;2023-06-22T01:51:30;20.40;99.90
9949;DHT22;5013;51.840;8.276;2023-06-22T01:53:56;20.30;99.90
9949;DHT22;5013;51.840;8.276;2023-06-22T01:56:22;20.10;1.00
9949;DHT22;5013;51.840;8.276;2023-06-22T01:59:04;20.10;1.00
9949;DHT22;5013;51.840;8.276;2023-06-22T02:04:51;20.20;1.00
9949;DHT22;5013;51.840;8.276;2023-06-22T02:07:19;20.20;1.00
9949;DHT22;5013;51.840;8.276;2023-06-22T02:09:47;20.10;1.00
9949;DHT22;5013;51.840;8.276;2023-06-22T02:12:17;20.10;1.00
9949;DHT22;5013;51.840;8.276;2023-06-22T02:14:44;20.00;1.00
9949;DHT22;5013;51.840;8.276;2023-06-22T02:17:12;20.10;1.00
9949;DHT22;5013;51.840;8.276;2023-06-22T02:19:40;20.20;99.90
9949;DHT22;5013;51.840;8.276;2023-06-22T02:22:06;20.20;1.00
9949;DHT22;5013;51.840;8.276;2023-06-22T02:24:32;20.10;1.00
9949;DHT22;5013;51.840;8.276;2023-06-22T02:26:59;20.10;1.00
9949;DHT22;5013;51.840;8.276;2023-06-22T02:29:25;20.20;1.00
9949;DHT22;5013;51.840;8.276;2023-06-22T02:31:52;20.20;1.00
9949;DHT22;5013;51.840;8.276;2023-06-22T02:34:17;20.10;1.00
9949;DHT22;5013;51.840;8.276;2023-06-22T02:36:47;20.10;1.00
9949;DHT22;5013;51.840;8.276;2023-06-22T02:39:25;20.00;1.00
9949;DHT22;5013;51.840;8.276;2023-06-22T02:41:53;19.90;1.00
9949;DHT22;5013;51.840;8.276;2023-06-22T02:44:19;20.10;1.00
9949;DHT22;5013;51.840;8.276;2023-06-22T02:46:45;20.10;1.00
9949;DHT22;5013;51.840;8.276;2023-06-22T02:49:11;20.10;1.00
9949;DHT22;5013;51.840;8.276;2023-06-22T02:51:39;20.10;1.00
9949;DHT22;5013;51.840;8.276;2023-06-22T02:54:05;20.10;1.00
9949;DHT22;5013;51.840;8.276;2023-06-22T02:56:31;20.20;1.00
9949;DHT22;5013;51.840;8.276;2023-06-22T02:58:57;20.10;99.90
9949;DHT22;5013;51.840;8.276;2023-06-22T03:01:29;20.20;1.00
9949;DHT22;5013;51.840;8.276;2023-06-22T03:03:58;20.20;1.00
9949;DHT22;5013;51.840;8.276;2023-06-22T03:06:24;20.10;1.00
9949;DHT22;5013;51.840;8.276;2023-06-22T03:08:58;20.00;1.00
9949;DHT22;5013;51.840;8.276;2023-06-22T03:11:24;19.90;99.90
9949;DHT22;5013;51.840;8.276;2023-06-22T03:13:49;20.00;99.90
9949;DHT22;5013;51.840;8.276;2023-06-22T03:16:17;20.00;99.90
9949;DHT22;5013;51.840;8.276;2023-06-22T03:18:43;20.00;99.90
9949;DHT22;5013;51.840;8.276;2023-06-22T03:21:09;20.10;99.90
9949;DHT22;5013;51.840;8.276;2023-06-22T03:23:34;20.10;99.90
9949;DHT22;5013;51.840;8.276;2023-06-22T03:26:00;20.10;99.90
9949;DHT22;5013;51.840;8.276;2023-06-22T03:28:25;20.10;1.00
9949;DHT22;5013;51.840;8.276;2023-06-22T03:30:51;20.00;99.90
9949;DHT22;5013;51.840;8.276;2023-06-22T03:33:16;20.00;99.90
9949;DHT22;5013;51.840;8.276;2023-06-22T03:35:42;19.90;1.00
9949;DHT22;5013;51.840;8.276;2023-06-22T03:38:08;19.90;99.90
9949;DHT22;5013;51.840;8.276;2023-06-22T03:40:33;19.90;99.90
9949;DHT22;5013;51.840;8.276;2023-06-22T03:42:59;20.00;99.90
9949;DHT22;5013;51.840;8.276;2023-06-22T03:45:24;20.10;99.90
9949;DHT22;5013;51.840;8.276;2023-06-22T03:47:50;20.00;99.90
9949;DHT22;5013;51.840;8.276;2023-06-22T03:50:15;20.10;99.90
9949;DHT22;5013;51.840;8.276;2023-06-22T03:52:41;20.10;99.90
9949;DHT22;5013;51.840;8.276;2023-06-22T03:55:07;20.20;1.00
9949;DHT22;5013;51.840;8.276;2023-06-22T03:57:33;20.20;34.00
9949;DHT22;5013;51.840;8.276;2023-06-22T03:59:59;20.20;1.00
9949;DHT22;5013;51.840;8.276;2023-06-22T04:02:25;20.30;1.00
9949;DHT22;5013;51.840;8.276;2023-06-22T04:04:51;20.40;1.00
9949;DHT22;5013;51.840;8.276;2023-06-22T04:07:16;20.40;1.00
9949;DHT22;5013;51.840;8.276;2023-06-22T04:09:43;20.50;99.90
9949;DHT22;5013;51.840;8.276;2023-06-22T04:12:09;20.60;99.90
9949;DHT22;5013;51.840;8.276;2023-06-22T04:14:35;20.60;1.00
9949;DHT22;5013;51.840;8.276;2023-06-22T04:17:00;20.80;1.00
9949;DHT22;5013;51.840;8.276;2023-06-22T04:19:26;20.90;1.00
9949;DHT22;5013;51.840;8.276;2023-06-22T04:21:52;21.00;99.90
9949;DHT22;5013;51.840;8.276;2023-06-22T04:24:17;21.10;99.90
9949;DHT22;5013;51.840;8.276;2023-06-22T04:26:43;21.00;76.10
9949;DHT22;5013;51.840;8.276;2023-06-22T04:29:11;20.90;99.90
9949;DHT22;5013;51.840;8.276;2023-06-22T04:31:36;20.90;16.10
9949;DHT22;5013;51.840;8.276;2023-06-22T04:34:04;20.90;99.90
9949;DHT22;5013;51.840;8.276;2023-06-22T04:36:38;21.00;99.90
9949;DHT22;5013;51.840;8.276;2023-06-22T04:39:09;21.10;99.90
9949;DHT22;5013;51.840;8.276;2023-06-22T04:41:39;21.10;65.90
9949;DHT22;5013;51.840;8.276;2023-06-22T04:44:09;21.20;99.90
9949;DHT22;5013;51.840;8.276;2023-06-22T04:46:35;21.20;99.90
9949;DHT22;5013;51.840;8.276;2023-06-22T04:49:05;21.40;99.90
9949;DHT22;5013;51.840;8.276;2023-06-22T04:51:36;21.80;1.00
9949;DHT22;5013;51.840;8.276;2023-06-22T04:54:03;22.20;99.90
9949;DHT22;5013;51.840;8.276;2023-06-22T04:56:31;22.30;1.00
9949;DHT22;5013;51.840;8.276;2023-06-22T04:58:56;22.30;1.00
9949;DHT22;5013;51.840;8.276;2023-06-22T05:01:23;22.30;1.00
9949;DHT22;5013;51.840;8.276;2023-06-22T05:03:48;22.30;1.00
9949;DHT22;5013;51.840;8.276;2023-06-22T05:06:14;22.30;2.70
9949;DHT22;5013;51.840;8.276;2023-06-22T05:08:40;22.50;1.00
9949;DHT22;5013;51.840;8.276;2023-06-22T05:11:06;22.60;1.00
9949;DHT22;5013;51.840;8.276;2023-06-22T05:13:32;22.60;1.00
9949;DHT22;5013;51.840;8.276;2023-06-22T05:15:58;22.60;11.50
9949;DHT22;5013;51.840;8.276;2023-06-22T05:18:30;22.70;1.00
9949;DHT22;5013;51.840;8.276;2023-06-22T05:20:57;22.60;1.00
9949;DHT22;5013;51.840;8.276;2023-06-22T05:23:23;22.80;55.50
9949;DHT22;5013;51.840;8.276;2023-06-22T05:25:49;23.10;1.00
9949;DHT22;5013;51.840;8.276;2023-06-22T05:28:14;23.30;1.00
9949;DHT22;5013;51.840;8.276;2023-06-22T05:30:40;23.80;99.90
9949;DHT22;5013;51.840;8.276;2023-06-22T05:33:05;24.10;1.00
9949;DHT22;5013;51.840;8.276;2023-06-22T05:35:31;24.30;1.00
9949;DHT22;5013;51.840;8.276;2023-06-22T05:37:56;24.10;1.00
9949;DHT22;5013;51.840;8.276;2023-06-22T05:40:22;23.90;1.00
9949;DHT22;5013;51.840;8.276;2023-06-22T05:42:48;23.80;99.90
9949;DHT22;5013;51.840;8.276;2023-06-22T05:45:13;23.70;99.90
9949;DHT22;5013;51.840;8.276;2023-06-22T05:47:39;23.60;1.00
9949;DHT22;5013;51.840;8.276;2023-06-22T05:50:05;23.80;99.90
9949;DHT22;5013;51.840;8.276;2023-06-22T05:52:33;23.90;99.90
9949;DHT22;5013;51.840;8.276;2023-06-22T05:54:59;23.90;99.90
9949;DHT22;5013;51.840;8.276;2023-06-22T05:57:24;23.70;1.00
9949;DHT22;5013;51.840;8.276;2023-06-22T05:59:50;23.80;1.00
9949;DHT22;5013;51.840;8.276;2023-06-22T06:02:15;23.70;99.90
9949;DHT22;5013;51.840;8.276;2023-06-22T06:04:41;23.80;99.90
9949;DHT22;5013;51.840;8.276;2023-06-22T06:07:07;23.70;99.90
9949;DHT22;5013;51.840;8.276;2023-06-22T06:09:32;23.70;1.00
9949;DHT22;5013;51.840;8.276;2023-06-22T06:11:58;23.80;1.00
9949;DHT22;5013;51.840;8.276;2023-06-22T06:14:23;23.90;99.90
9949;DHT22;5013;51.840;8.276;2023-06-22T06:16:49;23.80;1.00
9949;DHT22;5013;51.840;8.276;2023-06-22T06:19:15;23.90;1.00
9949;DHT22;5013;51.840;8.276;2023-06-22T06:21:40;24.10;99.90
9949;DHT22;5013;51.840;8.276;2023-06-22T06:24:06;24.10;1.00
9949;DHT22;5013;51.840;8.276;2023-06-22T06:26:32;23.90;1.00
9949;DHT22;5013;51.840;8.276;2023-06-22T06:29:00;23.70;1.00
9949;DHT22;5013;51.840;8.276;2023-06-22T06:31:26;23.80;1.00
9949;DHT22;5013;51.840;8.276;2023-06-22T06:33:54;23.80;1.00
9949;DHT22;5013;51.840;8.276;2023-06-22T06:36:19;23.80;99.90
9949;DHT22;5013;51.840;8.276;2023-06-22T06:38:45;24.00;1.00
9949;DHT22;5013;51.840;8.276;2023-06-22T06:41:13;24.10;1.00
9949;DHT22;5013;51.840;8.276;2023-06-22T06:43:39;24.00;1.00
9949;DHT22;5013;51.840;8.276;2023-06-22T06:46:04;24.10;1.00
9949;DHT22;5013;51.840;8.276;2023-06-22T06:48:30;23.90;1.00
9949;DHT22;5013;51.840;8.276;2023-06-22T06:50:56;23.80;99.90
9949;DHT22;5013;51.840;8.276;2023-06-22T06:53:21;23.60;1.00
9949;DHT22;5013;51.840;8.276;2023-06-22T06:55:47;23.30;99.90
9949;DHT22;5013;51.840;8.276;2023-06-22T06:58:12;23.20;99.90
9949;DHT22;5013;51.840;8.276;2023-06-22T07:00:39;23.20;93.30
9949;DHT22;5013;51.840;8.276;2023-06-22T07:03:05;23.10;99.90
9949;DHT22;5013;51.840;8.276;2023-06-22T07:05:30;23.00;99.90
9949;DHT22;5013;51.840;8.276;2023-06-22T07:07:56;23.00;99.90
9949;DHT22;5013;51.840;8.276;2023-06-22T07:10:22;23.00;99.90
9949;DHT22;5013;51.840;8.276;2023-06-22T07:12:47;23.10;99.90
9949;DHT22;5013;51.840;8.276;2023-06-22T07:15:13;23.30;14.30
9949;DHT22;5013;51.840;8.276;2023-06-22T07:17:39;23.30;1.00
9949;DHT22;5013;51.840;8.276;2023-06-22T07:20:07;23.30;1.00
9949;DHT22;5013;51.840;8.276;2023-06-22T07:22:38;23.30;9.20
9949;DHT22;5013;51.840;8.276;2023-06-22T07:25:04;23.50;1.00
9949;DHT22;5013;51.840;8.276;2023-06-22T07:27:43;23.60;1.00
9949;DHT22;5013;51.840;8.276;2023-06-22T07:30:09;23.60;1.00
9949;DHT22;5013;51.840;8.276;2023-06-22T07:32:35;23.60;1.00
9949;DHT22;5013;51.840;8.276;2023-06-22T07:35:01;23.70;1.00
9949;DHT22;5013;51.840;8.276;2023-06-22T07:37:28;23.70;1.00
9949;DHT22;5013;51.840;8.276;2023-06-22T07:39:57;23.70;1.00
9949;DHT22;5013;51.840;8.276;2023-06-22T07:42:26;23.80;1.00
9949;DHT22;5013;51.840;8.276;2023-06-22T07:44:52;23.80;1.00
9949;DHT22;5013;51.840;8.276;2023-06-22T07:47:18;23.80;1.00
9949;DHT22;5013;51.840;8.276;2023-06-22T07:49:45;23.90;1.00
9949;DHT22;5013;51.840;8.276;2023-06-22T07:52:11;24.00;1.00
9949;DHT22;5013;51.840;8.276;2023-06-22T07:54:36;24.30;1.00
9949;DHT22;5013;51.840;8.276;2023-06-22T07:57:02;24.60;1.00
9949;DHT22;5013;51.840;8.276;2023-06-22T07:59:28;24.80;99.90
9949;DHT22;5013;51.840;8.276;2023-06-22T08:01:55;25.00;1.00
9949;DHT22;5013;51.840;8.276;2023-06-22T08:04:20;25.20;1.00
9949;DHT22;5013;51.840;8.276;2023-06-22T08:06:46;25.40;99.90
9949;DHT22;5013;51.840;8.276;2023-06-22T08:09:12;25.50;99.90
9949;DHT22;5013;51.840;8.276;2023-06-22T08:11:37;25.60;97.30
9949;DHT22;5013;51.840;8.276;2023-06-22T08:14:03;25.70;1.00
9949;DHT22;5013;51.840;8.276;2023-06-22T08:16:28;25.80;99.90
9949;DHT22;5013;51.840;8.276;2023-06-22T08:18:54;26.00;1.00
9949;DHT22;5013;51.840;8.276;2023-06-22T08:21:20;26.20;1.00
9949;DHT22;5013;51.840;8.276;2023-06-22T08:23:46;26.40;1.00
9949;DHT22;5013;51.840;8.276;2023-06-22T08:26:11;26.70;1.00
9949;DHT22;5013;51.840;8.276;2023-06-22T08:28:37;26.90;1.00
9949;DHT22;5013;51.840;8.276;2023-06-22T08:31:03;27.20;99.90
9949;DHT22;5013;51.840;8.276;2023-06-22T08:33:29;27.40;99.90
9949;DHT22;5013;51.840;8.276;2023-06-22T08:35:56;27.70;99.90
9949;DHT22;5013;51.840;8.276;2023-06-22T08:38:21;27.60;99.90
9949;DHT22;5013;51.840;8.276;2023-06-22T08:40:47;27.70;99.90
9949;DHT22;5013;51.840;8.276;2023-06-22T08:43:13;27.90;99.90
9949;DHT22;5013;51.840;8.276;2023-06-22T08:45:39;28.40;20.90
9949;DHT22;5013;51.840;8.276;2023-06-22T08:48:04;28.80;1.00
9949;DHT22;5013;51.840;8.276;2023-06-22T08:50:30;28.80;1.00
9949;DHT22;5013;51.840;8.276;2023-06-22T08:52:56;28.60;1.00
9949;DHT22;5013;51.840;8.276;2023-06-22T08:55:21;28.80;1.00
9949;DHT22;5013;51.840;8.276;2023-06-22T08:57:47;28.90;1.00
9949;DHT22;5013;51.840;8.276;2023-06-22T09:00:13;28.80;1.00
9949;DHT22;5013;51.840;8.276;2023-06-22T09:02:46;28.70;1.00
9949;DHT22;5013;51.840;8.276;2023-06-22T09:05:12;28.70;1.00
9949;DHT22;5013;51.840;8.276;2023-06-22T09:07:38;28.90;1.00
9949;DHT22;5013;51.840;8.276;2023-06-22T09:10:04;28.80;1.00
9949;DHT22;5013;51.840;8.276;2023-06-22T09:12:31;29.00;1.00
9949;DHT22;5013;51.840;8.276;2023-06-22T09:15:01;28.60;94.70
9949;DHT22;5013;51.840;8.276;2023-06-22T09:17:27;29.30;1.00
9949;DHT22;5013;51.840;8.276;2023-06-22T09:19:53;29.30;1.00
9949;DHT22;5013;51.840;8.276;2023-06-22T09:22:19;28.80;1.00
9949;DHT22;5013;51.840;8.276;2023-06-22T09:24:44;29.00;1.00
9949;DHT22;5013;51.840;8.276;2023-06-22T09:27:10;29.30;1.00
9949;DHT22;5013;51.840;8.276;2023-06-22T09:29:35;29.80;1.00
9949;DHT22;5013;51.840;8.276;2023-06-22T09:32:01;30.00;1.00
9949;DHT22;5013;51.840;8.276;2023-06-22T09:34:27;30.00;1.00
9949;DHT22;5013;51.840;8.276;2023-06-22T09:36:52;30.20;1.00
9949;DHT22;5013;51.840;8.276;2023-06-22T09:39:18;29.80;1.00
9949;DHT22;5013;51.840;8.276;2023-06-22T09:41:44;29.60;1.00
9949;DHT22;5013;51.840;8.276;2023-06-22T09:44:10;29.70;1.00
9949;DHT22;5013;51.840;8.276;2023-06-22T09:46:35;29.70;1.00
9949;DHT22;5013;51.840;8.276;2023-06-22T09:49:01;29.70;1.00
9949;DHT22;5013;51.840;8.276;2023-06-22T09:51:26;29.60;1.00
9949;DHT22;5013;51.840;8.276;2023-06-22T09:53:52;29.50;1.00
9949;DHT22;5013;51.840;8.276;2023-06-22T09:56:19;29.40;1.00
9949;DHT22;5013;51.840;8.276;2023-06-22T09:58:46;29.70;1.00
9949;DHT22;5013;51.840;8.276;2023-06-22T10:01:12;29.90;1.00
9949;DHT22;5013;51.840;8.276;2023-06-22T10:03:39;30.10;1.00
9949;DHT22;5013;51.840;8.276;2023-06-22T10:06:06;30.20;1.00
9949;DHT22;5013;51.840;8.276;2023-06-22T10:08:31;30.10;1.00
9949;DHT22;5013;51.840;8.276;2023-06-22T10:10:57;30.20;1.00
9949;DHT22;5013;51.840;8.276;2023-06-22T10:13:22;29.70;1.00
9949;DHT22;5013;51.840;8.276;2023-06-22T10:15:48;29.90;1.00
9949;DHT22;5013;51.840;8.276;2023-06-22T10:18:17;30.20;1.00
9949;DHT22;5013;51.840;8.276;2023-06-22T10:20:43;30.40;1.00
9949;DHT22;5013;51.840;8.276;2023-06-22T10:23:09;30.40;1.00
9949;DHT22;5013;51.840;8.276;2023-06-22T10:25:34;30.40;1.00
9949;DHT22;5013;51.840;8.276;2023-06-22T10:28:00;30.40;1.00
9949;DHT22;5013;51.840;8.276;2023-06-22T10:30:25;30.60;1.00
9949;DHT22;5013;51.840;8.276;2023-06-22T10:32:51;30.90;1.00
9949;DHT22;5013;51.840;8.276;2023-06-22T10:35:17;31.10;1.00
9949;DHT22;5013;51.840;8.276;2023-06-22T10:37:43;31.10;1.00
9949;DHT22;5013;51.840;8.276;2023-06-22T10:40:10;30.90;1.00
9949;DHT22;5013;51.840;8.276;2023-06-22T10:42:36;31.10;1.00
9949;DHT22;5013;51.840;8.276;2023-06-22T10:45:02;30.80;1.00
9949;DHT22;5013;51.840;8.276;2023-06-22T10:47:28;30.70;1.00
9949;DHT22;5013;51.840;8.276;2023-06-22T10:49:53;30.40;1.00
9949;DHT22;5013;51.840;8.276;2023-06-22T10:52:19;30.50;1.00
9949;DHT22;5013;51.840;8.276;2023-06-22T10:54:44;30.30;1.00
9949;DHT22;5013;51.840;8.276;2023-06-22T10:57:10;30.20;1.00
9949;DHT22;5013;51.840;8.276;2023-06-22T10:59:35;30.30;1.00
9949;DHT22;5013;51.840;8.276;2023-06-22T11:02:01;30.30;1.00
9949;DHT22;5013;51.840;8.276;2023-06-22T11:04:27;30.30;1.00
9949;DHT22;5013;51.840;8.276;2023-06-22T11:06:53;30.30;1.00
9949;DHT22;5013;51.840;8.276;2023-06-22T11:09:18;30.40;1.00
9949;DHT22;5013;51.840;8.276;2023-06-22T11:11:51;30.60;1.00
9949;DHT22;5013;51.840;8.276;2023-06-22T11:14:19;30.70;1.00
9949;DHT22;5013;51.840;8.276;2023-06-22T11:16:44;30.70;1.00
9949;DHT22;5013;51.840;8.276;2023-06-22T11:19:10;30.60;1.00
9949;DHT22;5013;51.840;8.276;2023-06-22T11:21:35;30.50;1.00
9949;DHT22;5013;51.840;8.276;2023-06-22T11:24:01;30.40;1.00
9949;DHT22;5013;51.840;8.276;2023-06-22T11:26:26;30.40;1.00
9949;DHT22;5013;51.840;8.276;2023-06-22T11:28:55;30.40;1.00
9949;DHT22;5013;51.840;8.276;2023-06-22T11:31:21;30.20;1.00
9949;DHT22;5013;51.840;8.276;2023-06-22T11:33:46;30.10;1.00
9949;DHT22;5013;51.840;8.276;2023-06-22T11:36:13;30.40;1.00
9949;DHT22;5013;51.840;8.276;2023-06-22T11:38:40;30.30;1.00
9949;DHT22;5013;51.840;8.276;2023-06-22T11:41:06;30.30;1.00
9949;DHT22;5013;51.840;8.276;2023-06-22T11:43:32;30.10;1.00
9949;DHT22;5013;51.840;8.276;2023-06-22T11:45:57;30.00;1.00
9949;DHT22;5013;51.840;8.276;2023-06-22T11:48:24;29.90;1.00
9949;DHT22;5013;51.840;8.276;2023-06-22T11:50:50;29.80;1.00
9949;DHT22;5013;51.840;8.276;2023-06-22T11:53:16;30.00;1.00
9949;DHT22;5013;51.840;8.276;2023-06-22T11:55:43;30.00;1.00
9949;DHT22;5013;51.840;8.276;2023-06-22T11:58:09;30.00;1.00
9949;DHT22;5013;51.840;8.276;2023-06-22T12:00:34;29.80;1.00
9949;DHT22;5013;51.840;8.276;2023-06-22T12:03:00;29.60;1.00
9949;DHT22;5013;51.840;8.276;2023-06-22T12:05:25;29.40;1.00
9949;DHT22;5013;51.840;8.276;2023-06-22T12:07:53;29.30;1.00
9949;DHT22;5013;51.840;8.276;2023-06-22T12:10:20;29.20;1.00
9949;DHT22;5013;51.840;8.276;2023-06-22T12:12:46;29.00;1.00
9949;DHT22;5013;51.840;8.276;2023-06-22T12:15:11;28.90;1.00
9949;DHT22;5013;51.840;8.276;2023-06-22T12:17:37;28.60;1.00
9949;DHT22;5013;51.840;8.276;2023-06-22T12:20:03;28.60;1.00
9949;DHT22;5013;51.840;8.276;2023-06-22T12:22:32;28.50;1.00
9949;DHT22;5013;51.840;8.276;2023-06-22T12:24:57;28.30;1.00
9949;DHT22;5013;51.840;8.276;2023-06-22T12:27:25;28.10;1.00
9949;DHT22;5013;51.840;8.276;2023-06-22T12:29:50;28.00;1.00
9949;DHT22;5013;51.840;8.276;2023-06-22T12:32:16;27.80;13.30
9949;DHT22;5013;51.840;8.276;2023-06-22T12:34:43;27.70;99.90
9949;DHT22;5013;51.840;8.276;2023-06-22T12:37:29;27.60;99.90
9949;DHT22;5013;51.840;8.276;2023-06-22T12:39:57;27.60;99.90
9949;DHT22;5013;51.840;8.276;2023-06-22T12:42:22;27.40;1.00
9949;DHT22;5013;51.840;8.276;2023-06-22T12:44:48;27.30;1.00
9949;DHT22;5013;51.840;8.276;2023-06-22T12:47:13;27.30;1.00
9949;DHT22;5013;51.840;8.276;2023-06-22T12:49:39;27.10;1.00
9949;DHT22;5013;51.840;8.276;2023-06-22T12:52:11;27.00;99.90
9949;DHT22;5013;51.840;8.276;2023-06-22T12:54:37;26.70;99.90
9949;DHT22;5013;51.840;8.276;2023-06-22T12:57:02;26.50;1.00
9949;DHT22;5013;51.840;8.276;2023-06-22T12:59:28;26.40;99.90
9949;DHT22;5013;51.840;8.276;2023-06-22T13:01:53;26.30;1.00
9949;DHT22;5013;51.840;8.276;2023-06-22T13:04:19;26.10;97.40
9949;DHT22;5013;51.840;8.276;2023-06-22T13:06:45;25.70;1.00
9949;DHT22;5013;51.840;8.276;2023-06-22T13:09:14;25.30;1.00
9949;DHT22;5013;51.840;8.276;2023-06-22T13:11:40;25.10;1.00
9949;DHT22;5013;51.840;8.276;2023-06-22T13:14:05;24.80;48.90
9949;DHT22;5013;51.840;8.276;2023-06-22T13:16:31;24.70;35.50
9949;DHT22;5013;51.840;8.276;2023-06-22T13:18:56;24.60;99.90
9949;DHT22;5013;51.840;8.276;2023-06-22T13:21:22;24.60;99.90
9949;DHT22;5013;51.840;8.276;2023-06-22T13:23:47;24.50;1.00
9949;DHT22;5013;51.840;8.276;2023-06-22T13:26:13;24.30;99.90
9949;DHT22;5013;51.840;8.276;2023-06-22T13:28:39;24.30;1.00
9949;DHT22;5013;51.840;8.276;2023-06-22T13:31:04;24.10;99.90
9949;DHT22;5013;51.840;8.276;2023-06-22T13:33:30;24.10;99.90
9949;DHT22;5013;51.840;8.276;2023-06-22T13:35:56;24.00;1.00
9949;DHT22;5013;51.840;8.276;2023-06-22T13:38:21;23.80;99.90
9949;DHT22;5013;51.840;8.276;2023-06-22T13:40:48;23.70;1.00
9949;DHT22;5013;51.840;8.276;2023-06-22T13:43:14;23.60;99.90
9949;DHT22;5013;51.840;8.276;2023-06-22T13:45:40;23.60;99.90
9949;DHT22;5013;51.840;8.276;2023-06-22T13:48:06;23.60;1.00
9949;DHT22;5013;51.840;8.276;2023-06-22T13:50:31;23.60;99.90
9949;DHT22;5013;51.840;8.276;2023-06-22T13:52:57;23.60;1.00
9949;DHT22;5013;51.840;8.276;2023-06-22T13:55:23;23.50;99.90
9949;DHT22;5013;51.840;8.276;2023-06-22T13:57:48;23.40;99.90
9949;DHT22;5013;51.840;8.276;2023-06-22T14:00:14;23.40;99.90
9949;DHT22;5013;51.840;8.276;2023-06-22T14:02:40;23.30;70.50
9949;DHT22;5013;51.840;8.276;2023-06-22T14:05:07;23.20;20.70
9949;DHT22;5013;51.840;8.276;2023-06-22T14:07:32;23.20;1.00
9949;DHT22;5013;51.840;8.276;2023-06-22T14:09:59;23.20;1.00
9949;DHT22;5013;51.840;8.276;2023-06-22T14:12:25;23.10;1.00
9949;DHT22;5013;51.840;8.276;2023-06-22T14:14:50;23.10;1.00
9949;DHT22;5013;51.840;8.276;2023-06-22T14:17:16;23.00;1.00
9949;DHT22;5013;51.840;8.276;2023-06-22T14:19:41;23.00;1.00
9949;DHT22;5013;51.840;8.276;2023-06-22T14:22:07;23.00;5.10
9949;DHT22;5013;51.840;8.276;2023-06-22T14:24:32;23.00;99.90
9949;DHT22;5013;51.840;8.276;2023-06-22T14:26:58;23.00;99.90
9949;DHT22;5013;51.840;8.276;2023-06-22T14:29:24;22.90;1.00
9949;DHT22;5013;51.840;8.276;2023-06-22T14:31:50;23.00;99.90
9949;DHT22;5013;51.840;8.276;2023-06-22T14:34:16;23.00;1.00
9949;DHT22;5013;51.840;8.276;2023-06-22T14:36:42;23.10;1.00
9949;DHT22;5013;51.840;8.276;2023-06-22T14:39:08;23.30;56.30
9949;DHT22;5013;51.840;8.276;2023-06-22T14:41:33;23.70;99.90
9949;DHT22;5013;51.840;8.276;2023-06-22T14:43:59;24.20;1.00
9949;DHT22;5013;51.840;8.276;2023-06-22T14:46:24;24.60;99.90
9949;DHT22;5013;51.840;8.276;2023-06-22T14:48:50;25.00;99.90
9949;DHT22;5013;51.840;8.276;2023-06-22T14:51:16;25.30;1.00
9949;DHT22;5013;51.840;8.276;2023-06-22T14:53:43;25.40;1.00
9949;DHT22;5013;51.840;8.276;2023-06-22T14:56:08;25.50;1.00
9949;DHT22;5013;51.840;8.276;2023-06-22T14:58:34;25.50;1.00
9949;DHT22;5013;51.840;8.276;2023-06-22T15:01:04;25.70;1.00
9949;DHT22;5013;51.840;8.276;2023-06-22T15:03:33;25.70;1.00
9949;DHT22;5013;51.840;8.276;2023-06-22T15:06:01;25.70;99.90
9949;DHT22;5013;51.840;8.276;2023-06-22T15:08:27;25.50;60.90
9949;DHT22;5013;51.840;8.276;2023-06-22T15:10:53;25.40;99.90
9949;DHT22;5013;51.840;8.276;2023-06-22T15:13:19;25.30;99.90
9949;DHT22;5013;51.840;8.276;2023-06-22T15:15:48;25.30;99.90
9949;DHT22;5013;51.840;8.276;2023-06-22T15:18:15;25.60;99.90
9949;DHT22;5013;51.840;8.276;2023-06-22T15:20:41;25.60;99.90
9949;DHT22;5013;51.840;8.276;2023-06-22T15:23:09;25.60;1.00
9949;DHT22;5013;51.840;8.276;2023-06-22T15:25:35;25.70;1.00
9949;DHT22;5013;51.840;8.276;2023-06-22T15:28:01;25.60;1.00
9949;DHT22;5013;51.840;8.276;2023-06-22T15:30:26;25.50;1.00
9949;DHT22;5013;51.840;8.276;2023-06-22T15:32:52;25.40;1.00
9949;DHT22;5013;51.840;8.276;2023-06-22T15:35:18;25.70;99.90
9949;DHT22;5013;51.840;8.276;2023-06-22T15:37:44;25.80;99.90
9949;DHT22;5013;51.840;8.276;2023-06-22T15:40:11;25.80;1.00
9949;DHT22;5013;51.840;8.276;2023-06-22T15:42:37;25.70;99.90
9949;DHT22;5013;51.840;8.276;2023-06-22T15:45:03;25.60;99.90
9949;DHT22;5013;51.840;8.276;2023-06-22T15:47:29;25.40;99.90
9949;DHT22;5013;51.840;8.276;2023-06-22T15:49:55;25.20;99.90
9949;DHT22;5013;51.840;8.276;2023-06-22T15:52:20;25.20;1.00
9949;DHT22;5013;51.840;8.276;2023-06-22T15:54:46;25.20;1.00
9949;DHT22;5013;51.840;8.276;2023-06-22T15:57:12;25.30;1.00
9949;DHT22;5013;51.840;8.276;2023-06-22T15:59:41;25.10;99.90
9949;DHT22;5013;51.840;8.276;2023-06-22T16:02:08;25.10;1.00
9949;DHT22;5013;51.840;8.276;2023-06-22T16:04:34;25.00;1.00
9949;DHT22;5013;51.840;8.276;2023-06-22T16:07:00;24.90;1.00
9949;DHT22;5013;51.840;8.276;2023-06-22T16:09:26;24.80;1.00
9949;DHT22;5013;51.840;8.276;2023-06-22T16:11:52;24.80;1.00
9949;DHT22;5013;51.840;8.276;2023-06-22T16:14:18;24.60;1.00